Terminal Aerodrome Forecast
Issued by NWS Los Angeles, CA

Home | Current Version | Previous Version | Text Only | Print | Product List | Glossary On
Versions: 1 2 3 4 5 6 7 8 9 10 11 12 13 14 15 16 17 18 19 20 21 22 23
000
FTUS46 KLOX 271100
TAFSMX
TAF
KSMX 271120Z 2712/2812 VRB03KT P6SM SKC
     FM272000 30012KT P6SM SKC
     FM280300 VRB03KT P6SM SKC
     FM280800 VRB03KT P6SM OVC005=

USA.gov is the U.S. government's official web portal to all federal, state and local government web resources and services.